Time;durP1;ratioP1;P1;durP2;ratioP2;P2;SDS_P1;SDS_P2;PMS_P1;PMS_P2;Temp;Humidity;BMP_temperature;BMP_pressure;BME280_temperature;BME280_humidity;BME280_pressure;Samples;Min_cycle;Max_cycle;Signal;HPM_P1;HPM_P2
2021/01/25 00:00:50;;;;;;;;;;;;;;;17.54;61.40;100272.97;4971101;28;1115;-69
2021/01/25 00:03:19;;;;;;;;;;;;;;;17.52;61.24;100274.84;4969068;28;1406;-73
2021/01/25 00:05:45;;;;;;;;;;;;;;;17.50;61.45;100266.22;4969470;28;1075;-72
2021/01/25 00:08:22;;;;;;;;;;;;;;;17.51;61.43;100267.88;4970655;28;1209;-73
2021/01/25 00:10:48;;;;;;;;;;;;;;;17.54;61.83;100272.97;4952947;28;1199;-72
2021/01/25 00:13:14;;;;;;;;;;;;;;;17.51;61.46;100273.16;4970544;28;1221;-73
2021/01/25 00:15:40;;;;;;;;;;;;;;;17.51;61.44;100275.78;4970728;28;1064;-72
2021/01/25 00:18:09;;;;;;;;;;;;;;;17.51;61.77;100274.97;4984981;28;1906;-71
2021/01/25 00:20:36;;;;;;;;;;;;;;;17.48;61.53;100268.91;4969809;28;1366;-71
2021/01/25 00:23:02;;;;;;;;;;;;;;;17.50;61.40;100271.47;4970443;28;1233;-72
2021/01/25 00:25:29;;;;;;;;;;;;;;;17.49;61.56;100264.50;4933972;29;1243;-73
2021/01/25 00:27:56;;;;;;;;;;;;;;;17.49;61.61;100264.50;4950948;28;1315;-73
2021/01/25 00:30:22;;;;;;;;;;;;;;;17.46;61.33;100259.41;4951179;28;1020;-73
2021/01/25 00:32:49;;;;;;;;;;;;;;;17.45;61.73;100258.56;4950549;29;1171;-73
2021/01/25 00:35:15;;;;;;;;;;;;;;;17.47;61.56;100255.84;4951051;29;1033;-73
2021/01/25 00:37:42;;;;;;;;;;;;;;;17.45;61.76;100257.72;4933619;29;1914;-73
2021/01/25 00:40:08;;;;;;;;;;;;;;;17.46;61.48;100255.00;4950404;28;1009;-72
2021/01/25 00:42:35;;;;;;;;;;;;;;;17.44;61.46;100254.25;4949372;28;1217;-72
2021/01/25 00:45:02;;;;;;;;;;;;;;;17.44;61.43;100248.13;4951085;29;910;-71
2021/01/25 00:47:28;;;;;;;;;;;;;;;17.44;61.88;100242.88;4960452;28;1355;-72
2021/01/25 00:49:55;;;;;;;;;;;;;;;17.44;61.61;100240.25;4970056;28;1137;-73
2021/01/25 00:52:21;;;;;;;;;;;;;;;17.43;62.84;100241.16;4937162;28;1258;-72
2021/01/25 00:54:47;;;;;;;;;;;;;;;17.44;61.88;100242.88;4952779;28;1331;-73
2021/01/25 00:57:13;;;;;;;;;;;;;;;17.45;61.86;100241.91;4970015;28;1906;-72
2021/01/25 00:59:41;;;;;;;;;;;;;;;17.42;61.66;100236.81;4968584;28;1349;-74
2021/01/25 01:02:08;;;;;;;;;;;;;;;17.40;61.55;100233.44;4969894;28;800;-72
2021/01/25 01:04:34;;;;;;;;;;;;;;;17.35;61.87;100219.72;4969509;28;1324;-72
2021/01/25 01:07:00;;;;;;;;;;;;;;;17.40;61.78;100234.31;4970406;28;1060;-72
2021/01/25 01:09:26;;;;;;;;;;;;;;;17.42;61.91;100237.69;4969895;28;1329;-72
2021/01/25 01:11:53;;;;;;;;;;;;;;;17.41;62.47;100237.78;4970028;28;1143;-72
2021/01/25 01:14:19;;;;;;;;;;;;;;;17.39;61.79;100232.59;4969801;28;1304;-71
2021/01/25 01:16:45;;;;;;;;;;;;;;;17.37;62.02;100231.84;4954136;28;1981;-72
2021/01/25 01:19:12;;;;;;;;;;;;;;;17.37;61.69;100234.47;4940520;28;1280;-71
2021/01/25 01:21:38;;;;;;;;;;;;;;;17.36;61.57;100226.66;4973786;28;1124;-71
2021/01/25 01:24:04;;;;;;;;;;;;;;;17.35;61.92;100225.84;4973458;28;1312;-72
2021/01/25 01:26:33;;;;;;;;;;;;;;;17.34;61.64;100221.50;4973962;28;1040;-72
2021/01/25 01:28:59;;;;;;;;;;;;;;;17.37;61.64;100228.38;4973691;28;1343;-73
2021/01/25 01:31:26;;;;;;;;;;;;;;;17.38;62.57;100227.44;4973698;28;1099;-71
2021/01/25 01:33:52;;;;;;;;;;;;;;;17.34;61.96;100226.75;4973515;28;1262;-73
2021/01/25 01:36:18;;;;;;;;;;;;;;;17.32;62.01;100219.91;4940281;28;964;-71
2021/01/25 01:38:45;;;;;;;;;;;;;;;17.34;62.09;100221.50;4973405;28;1984;-71
2021/01/25 01:41:11;;;;;;;;;;;;;;;17.32;62.32;100231.28;4972173;28;1212;-73
2021/01/25 01:43:37;;;;;;;;;;;;;;;17.33;61.73;100217.16;4973218;28;1214;-72
2021/01/25 01:46:03;;;;;;;;;;;;;;;17.33;62.37;100213.69;4955979;28;1261;-71
2021/01/25 01:48:31;;;;;;;;;;;;;;;17.32;61.99;100214.63;4955860;28;1174;-72
2021/01/25 01:50:58;;;;;;;;;;;;;;;17.30;61.68;100198.91;4955477;28;1418;-72
2021/01/25 01:53:24;;;;;;;;;;;;;;;17.30;61.82;100205.97;4973084;28;1328;-72
2021/01/25 01:55:51;;;;;;;;;;;;;;;17.29;61.75;100196.38;4971078;28;1261;-72
2021/01/25 01:58:19;;;;;;;;;;;;;;;17.29;61.66;100189.34;4971859;28;1981;-72
2021/01/25 02:00:46;;;;;;;;;;;;;;;17.30;62.16;100179.63;4955570;28;1186;-71
2021/01/25 02:03:12;;;;;;;;;;;;;;;17.28;61.65;100181.53;4972788;28;1354;-71
2021/01/25 02:05:43;;;;;;;;;;;;;;;17.28;61.84;100178.88;4972892;28;1167;-72
2021/01/25 02:08:09;;;;;;;;;;;;;;;17.28;61.65;100171.00;4952020;29;1411;-72
2021/01/25 02:10:36;;;;;;;;;;;;;;;17.28;62.10;100160.47;4954851;28;1132;-72
2021/01/25 02:13:02;;;;;;;;;;;;;;;17.25;61.28;100171.19;4972851;28;1257;-72
2021/01/25 02:15:30;;;;;;;;;;;;;;;17.27;61.79;100159.63;4972987;28;1052;-72
2021/01/25 02:17:57;;;;;;;;;;;;;;;17.28;61.95;100163.09;4973293;28;1976;-72
2021/01/25 02:20:32;;;;;;;;;;;;;;;17.27;61.84;100159.63;4972770;28;1062;-72
2021/01/25 02:23:02;;;;;;;;;;;;;;;17.25;62.31;100155.38;4972634;28;1246;-73
2021/01/25 02:25:54;;;;;;;;;;;;;;;17.23;61.99;100157.28;4972894;28;1100;-73
2021/01/25 02:28:21;;;;;;;;;;;;;;;17.25;61.88;100155.38;4946540;28;1245;-73
2021/01/25 02:30:48;;;;;;;;;;;;;;;17.24;62.11;100154.53;4972889;28;1140;-72
2021/01/25 02:33:19;;;;;;;;;;;;;;;17.23;61.75;100144.09;4974908;28;1289;-71
2021/01/25 02:35:48;;;;;;;;;;;;;;;17.21;61.81;100138.91;4941339;28;1182;-71
2021/01/25 02:38:16;;;;;;;;;;;;;;;17.22;61.78;100139.78;4972621;28;1907;-72
2021/01/25 02:40:45;;;;;;;;;;;;;;;17.17;62.23;100132.16;4972374;28;1039;-73
2021/01/25 02:43:12;;;;;;;;;;;;;;;17.20;61.82;100120.59;4971841;28;1218;-72
2021/01/25 02:45:40;;;;;;;;;;;;;;;17.20;61.80;100113.56;4954423;28;1359;-73
2021/01/25 02:48:07;;;;;;;;;;;;;;;17.19;61.81;100113.63;4972693;28;1336;-71
2021/01/25 02:50:34;;;;;;;;;;;;;;;17.19;61.96;100111.00;4954928;28;1806;-72
2021/01/25 02:53:00;;;;;;;;;;;;;;;17.18;62.17;100107.53;4972172;28;1221;-72
2021/01/25 02:55:26;;;;;;;;;;;;;;;17.18;61.86;100111.94;4972184;28;1052;-73
2021/01/25 02:57:55;;;;;;;;;;;;;;;17.16;61.91;100101.50;4971905;28;1986;-73
2021/01/25 03:00:21;;;;;;;;;;;;;;;17.16;61.97;100106.78;4970556;28;1052;-74
2021/01/25 03:02:48;;;;;;;;;;;;;;;17.16;61.58;100098.03;4971876;28;1230;-73
2021/01/25 03:05:14;;;;;;;;;;;;;;;17.17;61.74;100100.59;4953587;28;1337;-73
2021/01/25 03:07:42;;;;;;;;;;;;;;;17.17;61.69;100094.47;4971724;28;1218;-73
2021/01/25 03:10:08;;;;;;;;;;;;;;;17.15;61.53;100096.31;4972017;28;1043;-73
2021/01/25 03:12:36;;;;;;;;;;;;;;;17.14;61.49;100092.03;4954248;28;1411;-73
2021/01/25 03:15:03;;;;;;;;;;;;;;;17.16;61.41;100088.34;4970411;28;909;-73
2021/01/25 03:17:29;;;;;;;;;;;;;;;17.14;61.35;100087.63;4971789;28;1914;-72
2021/01/25 03:19:55;;;;;;;;;;;;;;;17.13;61.22;100087.69;4954264;28;1088;-72
2021/01/25 03:22:21;;;;;;;;;;;;;;;17.13;61.18;100085.06;4954025;28;1061;-73
2021/01/25 03:24:48;;;;;;;;;;;;;;;17.12;61.40;100086.00;4971388;28;1237;-73
2021/01/25 03:27:14;;;;;;;;;;;;;;;17.12;61.43;100084.22;4971530;28;920;-74
2021/01/25 03:29:40;;;;;;;;;;;;;;;17.13;61.49;100087.69;4971498;28;1242;-73
2021/01/25 03:32:06;;;;;;;;;;;;;;;17.12;61.25;100093.88;4971948;28;989;-73
2021/01/25 03:34:33;;;;;;;;;;;;;;;17.12;61.01;100091.25;4970316;28;1305;-73
2021/01/25 03:36:59;;;;;;;;;;;;;;;17.09;61.32;100087.03;4972045;28;1977;-71
2021/01/25 03:39:25;;;;;;;;;;;;;;;17.08;61.11;100080.09;4971293;28;1194;-72
2021/01/25 03:41:51;;;;;;;;;;;;;;;17.09;61.13;100080.91;4937506;28;1451;-72
2021/01/25 03:44:18;;;;;;;;;;;;;;;17.10;61.26;100086.09;4953655;28;1288;-72
2021/01/25 03:46:47;;;;;;;;;;;;;;;17.09;61.19;100080.91;4971442;28;1426;-72
2021/01/25 03:49:14;;;;;;;;;;;;;;;17.09;61.04;100086.16;4971468;28;1324;-73
2021/01/25 03:51:40;;;;;;;;;;;;;;;17.09;61.16;100083.53;4953905;28;1193;-73
2021/01/25 03:54:08;;;;;;;;;;;;;;;17.07;61.02;100093.31;4970156;28;1242;-73
2021/01/25 03:56:34;;;;;;;;;;;;;;;17.04;61.31;100083.84;4971589;28;1099;-73
2021/01/25 03:59:01;;;;;;;;;;;;;;;17.06;60.77;100081.09;4953902;28;1983;-72
2021/01/25 04:01:27;;;;;;;;;;;;;;;17.06;61.12;100094.25;4971345;28;1154;-72
2021/01/25 04:03:54;;;;;;;;;;;;;;;17.08;61.30;100079.25;4970835;28;1230;-72
2021/01/25 04:06:20;;;;;;;;;;;;;;;17.06;61.03;100078.47;4953794;28;950;-71
2021/01/25 04:08:47;;;;;;;;;;;;;;;17.06;60.91;100075.81;4971030;28;1202;-73
2021/01/25 04:11:14;;;;;;;;;;;;;;;17.06;60.88;100075.81;4953435;28;1168;-72
2021/01/25 04:13:40;;;;;;;;;;;;;;;17.04;61.04;100080.34;4969385;28;1242;-72
2021/01/25 04:16:06;;;;;;;;;;;;;;;17.00;60.74;100076.19;4970992;28;1052;-71
2021/01/25 04:18:33;;;;;;;;;;;;;;;16.99;60.63;100069.25;4970408;28;1918;-71
2021/01/25 04:21:00;;;;;;;;;;;;;;;17.00;60.92;100070.94;4970698;28;877;-73
2021/01/25 04:23:26;;;;;;;;;;;;;;;16.99;60.57;100069.25;4969277;28;1291;-73
2021/01/25 04:25:53;;;;;;;;;;;;;;;16.98;60.68;100054.41;4953117;28;1158;-73
2021/01/25 04:28:19;;;;;;;;;;;;;;;16.96;60.85;100049.25;4970284;28;1237;-73
2021/01/25 04:30:45;;;;;;;;;;;;;;;16.98;60.53;100052.63;4970166;28;1043;-72
2021/01/25 04:33:11;;;;;;;;;;;;;;;16.99;60.78;100038.53;4970255;28;1241;-72
2021/01/25 04:35:40;;;;;;;;;;;;;;;16.99;60.75;100042.97;4953373;28;958;-72
2021/01/25 04:38:10;;;;;;;;;;;;;;;16.96;60.38;100044.00;4970775;28;1910;-73
2021/01/25 04:40:36;;;;;;;;;;;;;;;16.99;60.62;100028.03;4953106;28;1084;-72
2021/01/25 04:43:03;;;;;;;;;;;;;;;16.99;60.77;100032.44;4970589;28;1233;-72
2021/01/25 04:45:29;;;;;;;;;;;;;;;16.98;60.55;100028.09;4952820;28;1159;-72
2021/01/25 04:47:56;;;;;;;;;;;;;;;16.96;60.59;100022.09;4952043;28;1324;-72
2021/01/25 04:50:23;;;;;;;;;;;;;;;16.99;60.43;100019.28;4952440;28;1334;-72
2021/01/25 04:52:50;;;;;;;;;;;;;;;16.98;60.28;100020.22;4952333;28;1284;-72
2021/01/25 04:55:16;;;;;;;;;;;;;;;16.96;60.34;100015.06;4952795;28;1269;-72
2021/01/25 04:57:44;;;;;;;;;;;;;;;16.98;60.45;100013.16;4936093;28;1915;-72
2021/01/25 05:00:11;;;;;;;;;;;;;;;16.96;60.30;100016.84;4936292;28;1269;-73
2021/01/25 05:02:38;;;;;;;;;;;;;;;16.97;60.50;100021.13;4952756;28;1233;-73
2021/01/25 05:05:05;;;;;;;;;;;;;;;16.97;60.56;100010.59;4968583;28;1368;-73
2021/01/25 05:07:33;;;;;;;;;;;;;;;16.95;60.35;100021.25;4952836;28;1233;-72
2021/01/25 05:09:59;;;;;;;;;;;;;;;16.92;60.28;100011.75;4969904;28;970;-72
2021/01/25 05:12:46;;;;;;;;;;;;;;;16.94;60.23;100022.16;4970203;28;802;-72
2021/01/25 05:15:32;;;;;;;;;;;;;;;16.93;60.32;100018.69;4951867;28;1536;-73
2021/01/25 05:18:04;;;;;;;;;;;;;;;16.94;60.16;100014.28;4949809;28;1961;-73
2021/01/25 05:20:31;;;;;;;;;;;;;;;16.92;60.09;100013.53;4936550;28;1364;-74
2021/01/25 05:23:01;;;;;;;;;;;;;;;16.89;60.36;100011.09;4952608;28;1305;-72
2021/01/25 05:25:29;;;;;;;;;;;;;;;16.91;60.34;100014.47;4970329;28;1035;-73
2021/01/25 05:27:59;;;;;;;;;;;;;;;16.91;60.46;100023.22;4969605;28;1241;-72
2021/01/25 05:30:25;;;;;;;;;;;;;;;16.92;60.27;100011.75;4969857;28;1059;-71
2021/01/25 05:32:53;;;;;;;;;;;;;;;16.91;60.46;100012.69;4952186;28;1221;-73
2021/01/25 05:35:22;;;;;;;;;;;;;;;16.91;60.39;100012.69;4952174;28;1337;-72
2021/01/25 05:37:54;;;;;;;;;;;;;;;16.89;60.35;100022.47;4951341;28;1910;-73
2021/01/25 05:40:22;;;;;;;;;;;;;;;16.87;60.52;100013.81;4952365;28;1191;-72
2021/01/25 05:42:48;;;;;;;;;;;;;;;16.88;60.69;100015.50;4952417;28;1269;-72
2021/01/25 05:45:15;;;;;;;;;;;;;;;16.88;60.55;100015.50;4968287;28;1099;-72
2021/01/25 05:47:46;;;;;;;;;;;;;;;16.89;60.67;100017.19;4969600;28;1226;-72
2021/01/25 05:50:26;;;;;;;;;;;;;;;16.90;60.40;100025.94;4952267;28;1253;-72
2021/01/25 05:52:53;;;;;;;;;;;;;;;16.89;60.55;100038.25;4969564;28;1336;-72
2021/01/25 05:55:20;;;;;;;;;;;;;;;16.85;60.15;100031.47;4969847;28;962;-73
2021/01/25 05:57:46;;;;;;;;;;;;;;;16.88;60.27;100035.69;4949210;29;1918;-72
2021/01/25 06:00:13;;;;;;;;;;;;;;;16.88;60.68;100026.03;4932887;29;1264;-73
2021/01/25 06:02:46;;;;;;;;;;;;;;;16.89;60.74;100033.00;4965880;28;1277;-73
2021/01/25 06:05:26;;;;;;;;;;;;;;;16.88;60.41;100031.28;4973449;28;1575;-72
2021/01/25 06:07:52;;;;;;;;;;;;;;;16.88;60.84;100036.53;4955663;28;1375;-72
2021/01/25 06:10:25;;;;;;;;;;;;;;;16.90;60.51;100053.06;4973304;28;1111;-74
2021/01/25 06:13:03;;;;;;;;;;;;;;;16.87;60.28;100053.25;4972940;28;1344;-75
2021/01/25 06:15:33;;;;;;;;;;;;;;;16.90;60.74;100054.88;4972492;28;1543;-74
2021/01/25 06:17:59;;;;;;;;;;;;;;;16.90;60.49;100058.34;4971265;28;1989;-73
2021/01/25 06:20:29;;;;;;;;;;;;;;;16.91;59.98;100051.28;4971407;28;1062;-73
2021/01/25 06:22:55;;;;;;;;;;;;;;;16.91;60.39;100064.44;4951824;29;1371;-71
2021/01/25 06:25:23;;;;;;;;;;;;;;;16.90;60.67;100070.66;4953425;29;1077;-72
2021/01/25 06:27:52;;;;;;;;;;;;;;;16.93;60.54;100065.22;4953426;29;1206;-72
2021/01/25 06:30:19;;;;;;;;;;;;;;;16.91;60.85;100067.94;4951956;28;1096;-74
2021/01/25 06:32:46;;;;;;;;;;;;;;;16.93;60.73;100063.41;4957568;28;1344;-73
2021/01/25 06:35:15;;;;;;;;;;;;;;;16.96;61.02;100064.19;4939172;28;1167;-73
2021/01/25 06:37:42;;;;;;;;;;;;;;;16.91;61.00;100073.19;4954886;28;1981;-74
2021/01/25 06:40:10;;;;;;;;;;;;;;;16.89;60.70;100069.81;4970726;28;1646;-74
2021/01/25 06:42:40;;;;;;;;;;;;;;;16.98;61.32;100078.09;4971045;28;1379;-73
2021/01/25 06:45:07;;;;;;;;;;;;;;;16.96;60.77;100072.94;4950887;28;1756;-75
2021/01/25 06:47:34;;;;;;;;;;;;;;;16.92;60.56;100085.41;4950595;29;1281;-74
2021/01/25 06:50:05;;;;;;;;;;;;;;;16.98;61.00;100091.25;4936095;29;1068;-75
2021/01/25 06:52:35;;;;;;;;;;;;;;;16.99;61.08;100093.78;4953735;28;1269;-73
2021/01/25 06:55:06;;;;;;;;;;;;;;;16.94;60.31;100082.69;4971516;28;1457;-73
2021/01/25 06:57:34;;;;;;;;;;;;;;;16.96;61.21;100077.34;4952654;29;1911;-74
2021/01/25 07:00:10;;;;;;;;;;;;;;;16.97;60.64;100076.38;4955092;28;975;-74
2021/01/25 07:02:53;;;;;;;;;;;;;;;16.95;60.70;100073.88;4971824;28;1299;-74
2021/01/25 07:05:21;;;;;;;;;;;;;;;17.00;61.64;100086.72;4971965;28;1093;-75
2021/01/25 07:07:47;;;;;;;;;;;;;;;17.07;61.62;100088.06;4971621;28;1218;-76
2021/01/25 07:10:15;;;;;;;;;;;;;;;17.06;61.01;100089.00;4970575;28;1059;-75
2021/01/25 07:12:41;;;;;;;;;;;;;;;17.10;61.25;100086.09;4971398;28;1253;-73
2021/01/25 07:15:08;;;;;;;;;;;;;;;17.20;61.06;100081.13;4970381;28;1112;-74
2021/01/25 07:17:35;;;;;;;;;;;;;;;17.25;61.07;100071.16;4971087;28;1911;-75
2021/01/25 07:20:03;;;;;;;;;;;;;;;17.31;61.22;100070.78;4937462;28;1283;-76
2021/01/25 07:22:30;;;;;;;;;;;;;;;17.41;60.94;100080.66;4970675;28;1234;-75
2021/01/25 07:24:56;;;;;;;;;;;;;;;17.48;60.63;100078.47;4970713;28;1176;-72
2021/01/25 07:27:32;;;;;;;;;;;;;;;17.51;60.57;100075.66;4952800;28;1028;-72
2021/01/25 07:29:59;;;;;;;;;;;;;;;17.58;60.49;100074.38;4945065;28;1300;-72
2021/01/25 07:32:26;;;;;;;;;;;;;;;17.61;60.20;100075.97;4949403;28;894;-73
2021/01/25 07:34:54;;;;;;;;;;;;;;;17.63;60.23;100067.00;4970386;28;1110;-73
2021/01/25 07:37:21;;;;;;;;;;;;;;;17.66;60.32;100071.28;4970437;28;1918;-71
2021/01/25 07:39:47;;;;;;;;;;;;;;;17.69;60.26;100076.34;4953064;28;1324;-73
2021/01/25 07:42:13;;;;;;;;;;;;;;;17.71;60.24;100063.91;4970625;28;999;-72
2021/01/25 07:44:39;;;;;;;;;;;;;;;17.76;60.56;100070.56;4970186;28;1340;-70
2021/01/25 07:47:08;;;;;;;;;;;;;;;17.79;59.43;100067.75;4952902;28;1084;-70
2021/01/25 07:49:37;;;;;;;;;;;;;;;17.84;59.94;100072.75;4969765;28;1803;-68
2021/01/25 07:52:04;;;;;;;;;;;;;;;17.82;59.73;100077.25;4934781;28;1339;-68
2021/01/25 07:54:31;;;;;;;;;;;;;;;17.83;60.05;100076.31;4943536;29;1314;-70
2021/01/25 07:56:59;;;;;;;;;;;;;;;17.83;59.98;100068.41;4932261;29;1082;-71
2021/01/25 07:59:35;;;;;;;;;;;;;;;17.86;59.66;100074.34;4958485;28;1899;-70
2021/01/25 08:02:09;;;;;;;;;;;;;;;17.95;59.86;100076.38;4952054;28;1286;-69
2021/01/25 08:04:38;;;;;;;;;;;;;;;17.91;59.79;100077.50;4969302;28;1316;-69
2021/01/25 08:07:04;;;;;;;;;;;;;;;17.90;60.05;100067.09;4963786;28;1272;-70
2021/01/25 08:09:33;;;;;;;;;;;;;;;17.89;60.12;100076.78;4951560;28;1241;-69
2021/01/25 08:11:59;;;;;;;;;;;;;;;17.88;60.12;100069.81;4951583;28;1234;-69
2021/01/25 08:15:00;;;;;;;;;;;;;;;17.90;60.18;100065.25;4968773;28;1257;-68
2021/01/25 08:17:31;;;;;;;;;;;;;;;17.91;60.14;100071.38;4951509;28;1914;-68
2021/01/25 08:20:08;;;;;;;;;;;;;;;17.92;59.97;100068.66;4951410;28;1024;-69
2021/01/25 08:22:42;;;;;;;;;;;;;;;17.93;59.71;100065.06;4967049;28;1439;-69
2021/01/25 08:25:14;;;;;;;;;;;;;;;17.92;59.93;100073.94;4945721;28;1681;-69
2021/01/25 08:27:40;;;;;;;;;;;;;;;17.93;60.07;100074.78;4967935;28;1332;-69
2021/01/25 08:30:11;;;;;;;;;;;;;;;17.95;59.85;100072.91;4968382;28;1050;-70
2021/01/25 08:32:40;;;;;;;;;;;;;;;17.94;59.99;100074.69;4951076;28;1324;-69
2021/01/25 08:35:07;;;;;;;;;;;;;;;18.03;59.40;100076.72;4951330;28;1261;-76
2021/01/25 08:37:34;;;;;;;;;;;;;;;18.05;59.23;100083.69;4950743;28;1971;-74
2021/01/25 08:40:13;;;;;;;;;;;;;;;18.00;59.70;100076.91;4968789;28;1024;-72
2021/01/25 08:42:39;;;;;;;;;;;;;;;17.95;57.40;100078.16;4968191;28;1562;-72
2021/01/25 08:45:14;;;;;;;;;;;;;;;17.95;59.03;100067.63;4968615;28;1019;-73
2021/01/25 08:47:40;;;;;;;;;;;;;;;17.95;58.85;100075.53;4968474;28;1312;-73
2021/01/25 08:50:26;;;;;;;;;;;;;;;17.93;58.97;100078.25;4968908;28;1058;-72
2021/01/25 08:53:00;;;;;;;;;;;;;;;17.95;58.99;100083.44;4950990;28;1489;-71
2021/01/25 08:55:31;;;;;;;;;;;;;;;17.95;58.95;100086.91;4968358;28;1698;-72
2021/01/25 08:57:58;;;;;;;;;;;;;;;17.96;59.11;100085.97;4964564;28;1907;-72
2021/01/25 09:00:27;;;;;;;;;;;;;;;17.95;59.42;100084.28;4932318;29;1306;-72
2021/01/25 09:02:57;;;;;;;;;;;;;;;17.97;59.08;100076.25;4957421;28;1281;-73
2021/01/25 09:05:23;;;;;;;;;;;;;;;17.96;58.96;100080.69;4952230;28;1659;-73
2021/01/25 09:07:50;;;;;;;;;;;;;;;17.96;59.32;100091.22;4970325;28;1392;-73
2021/01/25 09:10:16;;;;;;;;;;;;;;;17.98;59.01;100083.25;4967816;28;1452;-71
2021/01/25 09:12:42;;;;;;;;;;;;;;;17.99;59.10;100077.03;4968492;28;1388;-72
2021/01/25 09:15:09;;;;;;;;;;;;;;;17.98;59.18;100070.06;4968365;28;1441;-73
2021/01/25 09:17:36;;;;;;;;;;;;;;;17.99;59.03;100075.22;4948111;28;1919;-71
2021/01/25 09:20:03;;;;;;;;;;;;;;;17.99;59.12;100084.94;4966598;28;1081;-72
2021/01/25 09:22:30;;;;;;;;;;;;;;;18.02;59.17;100096.09;4968656;28;1304;-72
2021/01/25 09:24:57;;;;;;;;;;;;;;;18.02;58.98;100106.66;4968285;28;1083;-73
2021/01/25 09:27:23;;;;;;;;;;;;;;;18.03;59.16;100104.84;4968217;28;1053;-72
2021/01/25 09:29:50;;;;;;;;;;;;;;;18.01;59.16;100112.88;4968016;28;1261;-73
2021/01/25 09:32:16;;;;;;;;;;;;;;;18.05;59.03;100110.06;4967926;28;1021;-72
2021/01/25 09:34:43;;;;;;;;;;;;;;;18.05;59.13;100123.22;4950600;28;1395;-74
2021/01/25 09:37:29;;;;;;;;;;;;;;;18.05;59.19;100132.00;4969457;28;1989;-74
2021/01/25 09:39:55;;;;;;;;;;;;;;;18.04;59.20;100130.28;4954369;28;1795;-72
2021/01/25 09:42:22;;;;;;;;;;;;;;;18.10;58.64;100142.22;4971770;28;1066;-73
2021/01/25 09:45:07;;;;;;;;;;;;;;;18.09;58.83;100130.00;4971812;28;1132;-73
2021/01/25 09:47:34;;;;;;;;;;;;;;;18.07;59.17;100137.16;4971568;28;1301;-73
2021/01/25 09:50:00;;;;;;;;;;;;;;;18.06;59.14;100149.47;4971906;28;1096;-73
2021/01/25 09:52:26;;;;;;;;;;;;;;;18.06;59.29;100144.19;4971679;28;987;-72
2021/01/25 09:54:56;;;;;;;;;;;;;;;18.11;58.78;100146.56;4971817;28;1113;-71
2021/01/25 09:57:22;;;;;;;;;;;;;;;18.08;58.77;100152.88;4971537;28;1074;-73
2021/01/25 09:59:50;;;;;;;;;;;;;;;18.08;59.26;100144.97;4953364;28;1910;-72
2021/01/25 10:02:17;;;;;;;;;;;;;;;18.11;59.07;100154.47;4936717;28;1249;-75
2021/01/25 10:04:43;;;;;;;;;;;;;;;18.17;59.03;100151.44;4953970;28;1342;-73
2021/01/25 10:07:10;;;;;;;;;;;;;;;18.15;59.13;100137.53;4968621;28;887;-73
2021/01/25 10:09:37;;;;;;;;;;;;;;;18.12;59.17;100140.34;4970779;28;1256;-72
2021/01/25 10:12:03;;;;;;;;;;;;;;;18.10;59.28;100132.53;4969374;28;1271;-72
2021/01/25 10:14:32;;;;;;;;;;;;;;;18.11;59.22;100136.00;4953379;28;1320;-73
2021/01/25 10:17:00;;;;;;;;;;;;;;;18.09;59.30;100127.38;4971001;28;1186;-70
2021/01/25 10:19:27;;;;;;;;;;;;;;;18.07;59.39;100145.06;4969870;28;1991;-74
2021/01/25 10:21:53;;;;;;;;;;;;;;;18.06;59.49;100153.88;4950368;28;1206;-70
2021/01/25 10:24:19;;;;;;;;;;;;;;;18.07;59.37;100150.31;4951523;28;1380;-70
2021/01/25 10:26:46;;;;;;;;;;;;;;;18.04;59.38;100154.00;4971210;28;1313;-71
2021/01/25 10:29:12;;;;;;;;;;;;;;;18.03;59.14;100149.66;4970405;28;1285;-73
2021/01/25 10:31:38;;;;;;;;;;;;;;;18.00;59.21;100145.44;4971748;28;1107;-71
2021/01/25 10:34:04;;;;;;;;;;;;;;;17.97;59.18;100150.91;4953328;28;1367;-71
2021/01/25 10:36:31;;;;;;;;;;;;;;;17.96;59.33;100137.84;4971105;28;1040;-69
2021/01/25 10:38:57;;;;;;;;;;;;;;;17.93;59.10;100141.50;4953235;28;1989;-70
2021/01/25 10:41:24;;;;;;;;;;;;;;;17.91;59.54;100140.75;4953017;28;891;-73
2021/01/25 10:43:53;;;;;;;;;;;;;;;17.91;58.83;100140.75;4952870;28;1403;-72
2021/01/25 10:46:19;;;;;;;;;;;;;;;17.93;59.41;100149.41;4953321;28;1071;-71
2021/01/25 10:48:46;;;;;;;;;;;;;;;17.91;59.44;100155.72;4969574;28;1344;-71
2021/01/25 10:51:12;;;;;;;;;;;;;;;17.89;59.46;100147.91;4970818;28;1158;-71
2021/01/25 10:53:38;;;;;;;;;;;;;;;17.88;59.42;100145.34;4970545;28;1289;-70
2021/01/25 10:56:05;;;;;;;;;;;;;;;17.86;59.33;100148.09;4970711;28;1198;-69
2021/01/25 10:58:31;;;;;;;;;;;;;;;17.83;59.45;100140.38;4952846;28;1976;-71
2021/01/25 11:00:57;;;;;;;;;;;;;;;17.83;59.64;100137.75;4970853;28;1064;-73
2021/01/25 11:03:24;;;;;;;;;;;;;;;17.82;59.91;100129.94;4952886;28;1342;-71
2021/01/25 11:05:50;;;;;;;;;;;;;;;17.81;59.62;100136.97;4937202;28;1310;-70
2021/01/25 11:08:16;;;;;;;;;;;;;;;17.80;59.93;100132.69;4969212;28;1364;-71
2021/01/25 11:10:43;;;;;;;;;;;;;;;17.78;59.71;100134.53;4952378;28;1384;-70
2021/01/25 11:13:09;;;;;;;;;;;;;;;17.78;59.95;100134.53;4969841;28;1277;-71
2021/01/25 11:15:36;;;;;;;;;;;;;;;17.78;60.05;100131.09;4936875;28;1246;-70
2021/01/25 11:18:03;;;;;;;;;;;;;;;17.77;59.96;100122.34;4949022;28;1918;-70
2021/01/25 11:20:32;;;;;;;;;;;;;;;17.75;60.36;100121.56;4951213;29;1046;-70
2021/01/25 11:22:59;;;;;;;;;;;;;;;17.75;60.26;100124.19;4958276;28;1308;-70
2021/01/25 11:25:25;;;;;;;;;;;;;;;17.74;60.18;100119.88;4970350;28;1059;-68
2021/01/25 11:27:51;;;;;;;;;;;;;;;17.73;59.92;100115.56;4952519;28;1331;-69
2021/01/25 11:30:20;;;;;;;;;;;;;;;17.72;60.10;100108.59;4970345;28;1036;-70
2021/01/25 11:32:46;;;;;;;;;;;;;;;17.71;60.00;100109.53;4969911;28;1273;-70
2021/01/25 11:35:13;;;;;;;;;;;;;;;17.72;60.41;100102.50;4968412;28;1037;-73
2021/01/25 11:37:39;;;;;;;;;;;;;;;17.72;60.05;100102.50;4969293;28;1907;-69
2021/01/25 11:40:06;;;;;;;;;;;;;;;17.72;60.12;100099.84;4969488;28;954;-69
2021/01/25 11:42:35;;;;;;;;;;;;;;;17.71;60.22;100095.53;4959888;28;1269;-69
2021/01/25 11:45:02;;;;;;;;;;;;;;;17.70;60.76;100091.19;4951922;28;1096;-70
2021/01/25 11:47:29;;;;;;;;;;;;;;;17.80;60.45;100089.69;4951466;28;1259;-75
2021/01/25 11:49:56;;;;;;;;;;;;;;;17.78;60.43;100084.50;4967295;28;1245;-71
2021/01/25 11:52:22;;;;;;;;;;;;;;;17.73;60.44;100078.69;4942460;28;1123;-70
2021/01/25 11:54:49;;;;;;;;;;;;;;;17.73;60.26;100078.69;4952153;28;1167;-73
2021/01/25 11:57:15;;;;;;;;;;;;;;;17.73;60.36;100073.41;4969008;28;1058;-69
2021/01/25 11:59:41;;;;;;;;;;;;;;;17.75;60.51;100073.31;4950760;28;1961;-70
2021/01/25 12:02:08;;;;;;;;;;;;;;;17.72;60.35;100076.16;4950707;28;995;-69
2021/01/25 12:04:34;;;;;;;;;;;;;;;17.74;60.52;100074.25;4968470;28;1401;-68
2021/01/25 12:07:01;;;;;;;;;;;;;;;17.66;57.77;100060.72;4968725;28;1366;-71
2021/01/25 12:09:27;;;;;;;;;;;;;;;17.66;59.71;100061.56;4969167;28;1229;-69
2021/01/25 12:11:54;;;;;;;;;;;;;;;17.72;60.26;100055.91;4951538;28;1277;-69
2021/01/25 12:14:20;;;;;;;;;;;;;;;17.71;60.46;100056.00;4949761;28;1281;-68
2021/01/25 12:16:46;;;;;;;;;;;;;;;17.68;60.36;100057.06;4969530;28;914;-68
2021/01/25 12:19:13;;;;;;;;;;;;;;;17.68;60.48;100053.56;4968579;28;1960;-68
2021/01/25 12:21:39;;;;;;;;;;;;;;;17.65;60.19;100046.72;4969064;28;915;-69
2021/01/25 12:24:09;;;;;;;;;;;;;;;17.69;61.13;100036.84;4952378;28;1257;-68
2021/01/25 12:26:35;;;;;;;;;;;;;;;17.75;61.12;100032.00;4959039;28;1744;-70
2021/01/25 12:29:01;;;;;;;;;;;;;;;17.72;61.26;100026.94;4957437;28;1304;-71
2021/01/25 12:31:28;;;;;;;;;;;;;;;17.72;61.88;100029.56;4951556;28;1148;-72
2021/01/25 12:33:55;;;;;;;;;;;;;;;17.73;63.25;100035.69;4951318;28;1301;-72
2021/01/25 12:36:21;;;;;;;;;;;;;;;17.72;63.54;100026.94;4949858;28;1188;-70
2021/01/25 12:38:48;;;;;;;;;;;;;;;17.73;64.75;100020.72;4949339;28;1911;-72
2021/01/25 12:41:14;;;;;;;;;;;;;;;17.71;65.33;100013.88;4948301;28;1141;-71
2021/01/25 12:43:40;;;;;;;;;;;;;;;17.71;64.57;100013.88;4925616;28;1321;-71
2021/01/25 12:46:07;;;;;;;;;;;;;;;17.71;65.33;100004.19;4968994;28;1034;-70
2021/01/25 12:48:33;;;;;;;;;;;;;;;17.72;65.22;99997.94;4951137;28;1509;-70
2021/01/25 12:50:59;;;;;;;;;;;;;;;17.73;65.16;99996.16;4968591;28;912;-68